createdAt,value
2023-07-03T00:00:57.660Z,19.33
2023-07-03T00:03:00.026Z,19.93
2023-07-03T00:05:04.427Z,17.37
2023-07-03T00:07:06.674Z,22.80
2023-07-03T00:09:10.326Z,18.40
2023-07-03T00:11:11.991Z,20.77
2023-07-03T00:13:13.721Z,21.83
2023-07-03T00:15:16.242Z,19.13
2023-07-03T00:17:18.125Z,14.50
2023-07-03T00:19:26.548Z,16.70
2023-07-03T00:21:28.235Z,17.07
2023-07-03T00:23:30.030Z,15.63
2023-07-03T00:25:31.725Z,15.20
2023-07-03T00:27:33.428Z,16.10
2023-07-03T00:29:35.303Z,19.70
2023-07-03T00:31:37.098Z,20.60
2023-07-03T00:33:38.823Z,18.17
2023-07-03T00:35:40.587Z,19.40
2023-07-03T00:37:42.322Z,21.63
2023-07-03T00:39:44.258Z,14.23
2023-07-03T00:41:45.965Z,14.30
2023-07-03T00:43:47.770Z,18.90
2023-07-03T00:45:49.729Z,21.80
2023-07-03T00:47:53.645Z,15.43
2023-07-03T00:49:55.385Z,23.10
2023-07-03T00:51:58.431Z,17.00
2023-07-03T00:54:00.117Z,14.43
2023-07-03T00:56:03.368Z,15.80
2023-07-03T00:58:05.106Z,22.83
2023-07-03T01:00:10.616Z,20.03
2023-07-03T01:02:17.032Z,12.90
2023-07-03T01:04:26.938Z,14.97
2023-07-03T01:06:36.388Z,19.93
2023-07-03T01:08:40.342Z,15.37
2023-07-03T01:10:42.811Z,18.37
2023-07-03T01:12:47.440Z,19.70
2023-07-03T01:14:50.353Z,17.77
2023-07-03T01:16:53.202Z,15.00
2023-07-03T01:18:55.198Z,17.90
2023-07-03T01:21:32.796Z,14.97
2023-07-03T01:23:50.808Z,20.83
2023-07-03T01:25:54.277Z,13.63
2023-07-03T01:27:59.529Z,17.63
2023-07-03T01:30:02.325Z,14.90
2023-07-03T01:32:10.331Z,16.73
2023-07-03T01:34:13.297Z,16.63
2023-07-03T01:36:17.170Z,15.70
2023-07-03T01:38:20.268Z,18.00
2023-07-03T01:40:25.128Z,26.47
2023-07-03T01:42:30.325Z,13.33
2023-07-03T01:44:32.109Z,36.90
2023-07-03T01:46:33.861Z,18.47
2023-07-03T01:48:36.273Z,18.60
2023-07-03T01:50:39.124Z,19.00
2023-07-03T01:52:45.855Z,25.63
2023-07-03T01:54:51.230Z,17.07
2023-07-03T01:56:54.982Z,19.73
2023-07-03T01:59:19.126Z,17.00
2023-07-03T02:01:30.148Z,17.53
2023-07-03T02:03:47.984Z,16.83
2023-07-03T02:05:51.628Z,19.90
2023-07-03T02:07:56.236Z,18.83
2023-07-03T02:09:58.380Z,14.73
2023-07-03T02:12:00.101Z,14.57
2023-07-03T02:14:02.623Z,17.57
2023-07-03T02:16:04.473Z,16.47
2023-07-03T02:18:06.298Z,17.67
2023-07-03T02:20:14.984Z,18.77
2023-07-03T02:22:16.707Z,12.63
2023-07-03T02:24:18.479Z,15.23
2023-07-03T02:26:20.517Z,14.17
2023-07-03T02:28:22.168Z,15.77
2023-07-03T02:30:24.036Z,23.37
2023-07-03T02:32:34.369Z,15.00
2023-07-03T02:34:36.512Z,17.63
2023-07-03T02:36:39.288Z,18.67
2023-07-03T02:38:40.950Z,24.27
2023-07-03T02:40:43.524Z,14.60
2023-07-03T02:42:45.256Z,14.27
2023-07-03T02:44:46.959Z,14.63
2023-07-03T02:46:48.868Z,14.30
2023-07-03T02:48:50.621Z,20.53
2023-07-03T02:50:53.790Z,16.07
2023-07-03T02:52:55.520Z,15.47
2023-07-03T02:54:57.196Z,16.90
2023-07-03T02:56:58.878Z,19.73
2023-07-03T02:59:00.564Z,18.03
2023-07-03T03:01:02.420Z,20.90
2023-07-03T03:03:04.305Z,17.67
2023-07-03T03:05:06.659Z,20.40
2023-07-03T03:07:08.444Z,19.30
2023-07-03T03:09:10.385Z,19.93
2023-07-03T03:11:12.078Z,18.73
2023-07-03T03:13:13.726Z,16.37
2023-07-03T03:15:18.300Z,16.57
2023-07-03T03:17:20.022Z,16.47
2023-07-03T03:19:21.671Z,17.67
2023-07-03T03:21:23.507Z,14.27
2023-07-03T03:23:25.204Z,18.30
2023-07-03T03:25:26.971Z,18.90
2023-07-03T03:27:28.822Z,20.67
2023-07-03T03:29:30.514Z,21.87
2023-07-03T03:31:32.226Z,13.93
2023-07-03T03:33:34.094Z,19.23
2023-07-03T03:35:35.783Z,16.83
2023-07-03T03:37:37.747Z,19.73
2023-07-03T03:39:39.464Z,15.03
2023-07-03T03:41:41.200Z,22.57
2023-07-03T03:43:42.999Z,15.97
2023-07-03T03:45:53.014Z,13.17
2023-07-03T03:47:54.873Z,21.93
2023-07-03T03:49:56.655Z,18.97
2023-07-03T03:51:58.404Z,19.10
2023-07-03T03:54:00.056Z,17.00
2023-07-03T03:56:01.948Z,18.80
2023-07-03T03:58:04.553Z,18.30
2023-07-03T04:00:14.227Z,15.80
2023-07-03T04:02:17.138Z,14.80
2023-07-03T04:04:18.982Z,16.20
2023-07-03T04:06:20.772Z,12.77
2023-07-03T04:08:22.455Z,16.33
2023-07-03T04:10:24.170Z,16.70
2023-07-03T04:12:25.891Z,17.17
2023-07-03T04:14:27.621Z,20.33
2023-07-03T04:16:31.963Z,18.87
2023-07-03T04:18:33.876Z,18.67
2023-07-03T04:20:35.552Z,15.70
2023-07-03T04:22:37.213Z,19.23
2023-07-03T04:24:39.065Z,16.53
2023-07-03T04:26:42.532Z,14.87
2023-07-03T04:28:44.545Z,16.70
2023-07-03T04:30:47.419Z,16.80
2023-07-03T04:32:54.906Z,18.70
2023-07-03T04:34:58.481Z,20.13
2023-07-03T04:37:00.171Z,18.40
2023-07-03T04:39:01.984Z,19.13
2023-07-03T04:41:04.065Z,16.37
2023-07-03T04:43:09.095Z,21.43
2023-07-03T04:45:11.615Z,14.43
2023-07-03T04:47:17.718Z,17.70
2023-07-03T04:49:19.478Z,17.20
2023-07-03T04:51:21.921Z,22.20
2023-07-03T04:53:25.319Z,14.80
2023-07-03T04:55:26.967Z,15.00
2023-07-03T04:57:28.719Z,17.40
2023-07-03T04:59:30.533Z,15.63
2023-07-03T05:01:32.370Z,20.13
2023-07-03T05:03:34.210Z,16.83
2023-07-03T05:05:36.247Z,13.63
2023-07-03T05:07:39.540Z,12.20
2023-07-03T05:09:41.318Z,18.60
2023-07-03T05:11:43.093Z,15.17
2023-07-03T05:13:44.921Z,21.07
2023-07-03T05:15:46.634Z,15.47
2023-07-03T05:17:53.655Z,19.93
2023-07-03T05:19:55.538Z,12.53
2023-07-03T05:21:57.178Z,15.37
2023-07-03T05:23:58.967Z,16.37
2023-07-03T05:26:00.660Z,18.07
2023-07-03T05:28:02.821Z,14.43
2023-07-03T05:30:06.566Z,18.90
2023-07-03T05:32:08.818Z,15.77
2023-07-03T05:34:10.539Z,10.03
2023-07-03T05:36:12.194Z,12.63
2023-07-03T05:38:13.889Z,15.30
2023-07-03T05:40:16.139Z,14.53
2023-07-03T05:42:18.724Z,15.93
2023-07-03T05:44:21.369Z,16.60
2023-07-03T05:46:23.060Z,17.17
2023-07-03T05:48:25.504Z,12.50
2023-07-03T05:50:27.218Z,15.30
2023-07-03T05:52:28.972Z,12.43
2023-07-03T05:54:30.833Z,19.47
2023-07-03T05:56:32.625Z,12.30
2023-07-03T05:58:34.350Z,14.80
2023-07-03T06:00:38.061Z,15.70
2023-07-03T06:02:41.294Z,16.60
2023-07-03T06:04:43.283Z,19.40
2023-07-03T06:06:45.118Z,20.33
2023-07-03T06:08:47.001Z,20.20
2023-07-03T06:10:48.820Z,18.50
2023-07-03T06:12:50.480Z,15.17
2023-07-03T06:14:52.230Z,16.50
2023-07-03T06:16:55.286Z,15.57
2023-07-03T06:18:57.024Z,14.57
2023-07-03T06:20:58.818Z,12.90
2023-07-03T06:23:00.919Z,18.47
2023-07-03T06:25:02.621Z,14.20
2023-07-03T06:27:04.933Z,18.60
2023-07-03T06:29:12.096Z,13.50
2023-07-03T06:31:15.169Z,14.90
2023-07-03T06:33:16.891Z,18.20
2023-07-03T06:35:20.394Z,13.00
2023-07-03T06:37:22.188Z,13.83
2023-07-03T06:39:23.922Z,12.07
2023-07-03T06:41:28.797Z,16.47
2023-07-03T06:43:30.482Z,15.20
2023-07-03T06:45:32.147Z,16.77
2023-07-03T06:47:33.952Z,12.40
2023-07-03T06:49:37.290Z,13.13
2023-07-03T06:51:39.097Z,14.57
2023-07-03T06:53:42.837Z,14.20
2023-07-03T06:55:44.468Z,19.47
2023-07-03T06:57:46.181Z,15.50
2023-07-03T06:59:51.318Z,13.20
2023-07-03T07:01:53.128Z,13.30
2023-07-03T07:03:54.881Z,15.93
2023-07-03T07:05:57.253Z,12.47
2023-07-03T07:07:59.764Z,13.27
2023-07-03T07:10:01.849Z,12.80
2023-07-03T07:12:03.828Z,18.57
2023-07-03T07:14:07.293Z,15.00
2023-07-03T07:16:17.831Z,16.70
2023-07-03T07:18:19.644Z,15.70
2023-07-03T07:20:21.402Z,14.27
2023-07-03T07:22:23.506Z,12.63
2023-07-03T07:24:25.609Z,15.83
2023-07-03T07:26:34.819Z,16.67
2023-07-03T07:28:36.645Z,12.63
2023-07-03T07:30:39.115Z,13.80
2023-07-03T07:32:40.854Z,12.23
2023-07-03T07:34:42.552Z,12.63
2023-07-03T07:36:44.304Z,14.00
2023-07-03T07:38:46.011Z,14.27
2023-07-03T07:40:47.706Z,14.77
2023-07-03T07:42:49.439Z,11.43
2023-07-03T07:44:51.471Z,11.73
2023-07-03T07:46:53.194Z,13.03
2023-07-03T07:48:55.030Z,16.87
2023-07-03T07:50:56.836Z,14.07
2023-07-03T07:53:01.020Z,11.03
2023-07-03T07:55:03.121Z,13.57
2023-07-03T07:57:05.006Z,14.80
2023-07-03T07:59:06.723Z,10.10
2023-07-03T08:01:08.691Z,16.17
2023-07-03T08:03:10.656Z,12.90
2023-07-03T08:05:12.494Z,21.77
2023-07-03T08:07:14.271Z,15.47
2023-07-03T08:09:16.078Z,14.40
2023-07-03T08:11:18.422Z,15.63
2023-07-03T08:13:20.237Z,20.70
2023-07-03T08:15:22.065Z,15.23
2023-07-03T08:17:23.904Z,23.50
2023-07-03T08:19:25.634Z,16.23
2023-07-03T08:21:27.515Z,12.60
2023-07-03T08:23:30.697Z,13.33
2023-07-03T08:25:32.379Z,15.60
2023-07-03T08:27:34.438Z,22.70
2023-07-03T08:29:36.127Z,15.33
2023-07-03T08:31:37.914Z,15.10
2023-07-03T08:33:39.853Z,17.40
2023-07-03T08:37:47.418Z,16.57
2023-07-03T08:39:49.198Z,15.87
2023-07-03T08:42:04.176Z,17.27
2023-07-03T08:44:06.607Z,20.67
2023-07-03T08:46:13.065Z,14.07
2023-07-03T08:48:22.161Z,13.90
2023-07-03T08:50:36.664Z,21.60
2023-07-03T08:52:45.356Z,14.33
2023-07-03T08:54:49.128Z,17.87
2023-07-03T08:56:51.069Z,17.10
2023-07-03T08:58:55.118Z,18.40
2023-07-03T09:01:10.701Z,15.23
2023-07-03T09:03:29.630Z,16.13
2023-07-03T09:06:08.752Z,13.87
2023-07-03T09:08:17.475Z,13.67
2023-07-03T09:10:25.731Z,23.23
2023-07-03T09:12:37.542Z,13.43
2023-07-03T09:14:44.825Z,25.70
2023-07-03T09:16:48.000Z,15.40
2023-07-03T09:19:01.800Z,12.93
2023-07-03T09:21:04.375Z,10.70
2023-07-03T09:23:26.271Z,13.43
2023-07-03T09:25:45.539Z,10.77
2023-07-03T09:27:52.105Z,10.32
2023-07-03T09:29:59.587Z,12.05
2023-07-03T09:32:01.421Z,14.18
2023-07-03T09:34:03.346Z,19.63
2023-07-03T09:36:22.807Z,11.93
2023-07-03T09:38:25.463Z,14.03
2023-07-03T09:40:30.967Z,17.10
2023-07-03T09:42:33.469Z,15.27
2023-07-03T09:44:42.762Z,12.47
2023-07-03T09:46:46.549Z,10.95
2023-07-03T09:48:48.310Z,12.57
2023-07-03T09:51:05.502Z,14.20
2023-07-03T09:53:20.585Z,16.48
2023-07-03T09:55:22.809Z,16.00
2023-07-03T09:57:26.999Z,14.77
2023-07-03T09:59:31.208Z,9.38
2023-07-03T10:03:42.959Z,10.98
2023-07-03T10:07:49.895Z,12.18
2023-07-03T10:12:17.142Z,13.70
2023-07-03T10:14:26.101Z,12.05
2023-07-03T10:16:28.622Z,15.25
2023-07-03T10:18:36.667Z,12.80
2023-07-03T10:20:45.064Z,12.95
2023-07-03T10:22:47.485Z,10.27
2023-07-03T10:24:51.042Z,12.02
2023-07-03T10:26:58.771Z,12.50
2023-07-03T10:29:12.459Z,12.30
2023-07-03T10:31:22.027Z,9.27
2023-07-03T10:33:29.668Z,13.30
2023-07-03T10:35:34.704Z,15.57
2023-07-03T10:37:47.469Z,11.57
2023-07-03T10:40:16.903Z,10.75
2023-07-03T10:42:31.967Z,10.20
2023-07-03T10:44:39.205Z,17.80
2023-07-03T10:47:01.083Z,9.27
2023-07-03T10:49:09.604Z,10.80
2023-07-03T10:51:26.745Z,14.13
2023-07-03T10:53:54.561Z,12.38
2023-07-03T10:56:11.774Z,9.48
2023-07-03T10:58:46.648Z,11.05
2023-07-03T11:00:55.818Z,16.52
2023-07-03T11:03:33.757Z,9.70
2023-07-03T11:05:53.139Z,9.60
2023-07-03T11:07:55.080Z,9.82
2023-07-03T11:10:35.493Z,9.60
2023-07-03T11:12:57.370Z,11.47
2023-07-03T11:15:07.831Z,9.37
2023-07-03T11:17:15.719Z,7.53
2023-07-03T11:24:19.122Z,12.63
2023-07-03T11:28:45.131Z,7.40
2023-07-03T11:30:50.550Z,6.10
2023-07-03T11:32:54.080Z,9.60
2023-07-03T11:37:03.694Z,8.20
2023-07-03T11:43:34.497Z,7.78
2023-07-03T11:45:37.748Z,10.80
2023-07-03T11:47:39.529Z,10.38
2023-07-03T11:49:52.922Z,7.53
2023-07-03T11:52:01.376Z,7.45
2023-07-03T11:54:21.693Z,5.60
2023-07-03T11:56:35.544Z,6.75
2023-07-03T11:58:38.514Z,9.60
2023-07-03T12:00:40.220Z,9.30
2023-07-03T12:02:56.664Z,9.95
2023-07-03T12:04:58.880Z,9.60
2023-07-03T12:07:00.636Z,8.23
2023-07-03T12:09:31.439Z,7.55
2023-07-03T12:12:00.300Z,10.93
2023-07-03T12:14:02.290Z,12.05
2023-07-03T12:16:15.268Z,11.43
2023-07-03T12:18:17.077Z,9.13
2023-07-03T12:20:18.729Z,9.43
2023-07-03T12:22:23.661Z,16.10
2023-07-03T12:24:30.581Z,9.60
2023-07-03T12:26:32.684Z,5.32
2023-07-03T12:28:35.118Z,10.88
2023-07-03T12:30:38.250Z,8.38
2023-07-03T12:32:40.075Z,8.88
2023-07-03T12:34:43.155Z,12.15
2023-07-03T12:36:50.649Z,8.80
2023-07-03T12:38:57.442Z,8.40
2023-07-03T12:40:59.855Z,9.85
2023-07-03T12:43:01.915Z,9.70
2023-07-03T12:45:18.908Z,11.90
2023-07-03T12:47:22.912Z,9.75
2023-07-03T12:49:24.864Z,7.70
2023-07-03T12:51:26.548Z,8.80
2023-07-03T12:53:35.310Z,7.18
2023-07-03T12:55:38.744Z,9.00
2023-07-03T12:57:40.599Z,8.65
2023-07-03T12:59:49.081Z,8.60
2023-07-03T13:01:52.623Z,7.68
2023-07-03T13:03:54.360Z,5.95
2023-07-03T13:05:56.647Z,11.20
2023-07-03T13:07:58.786Z,10.80
2023-07-03T13:10:08.492Z,5.85
2023-07-03T13:12:21.176Z,9.20
2023-07-03T13:14:28.612Z,5.93
2023-07-03T13:16:32.299Z,9.48
2023-07-03T13:18:33.999Z,6.63
2023-07-03T13:20:36.301Z,6.40
2023-07-03T13:22:38.091Z,8.18
2023-07-03T13:24:48.707Z,4.55
2023-07-03T13:26:52.120Z,6.80
2023-07-03T13:28:59.575Z,8.43
2023-07-03T13:31:22.045Z,6.13
2023-07-03T13:33:29.220Z,7.65
2023-07-03T13:35:54.209Z,13.05
2023-07-03T13:38:11.643Z,6.18
2023-07-03T13:40:13.477Z,4.75
2023-07-03T13:42:15.218Z,4.40
2023-07-03T13:44:19.234Z,4.33
2023-07-03T13:46:20.988Z,4.60
2023-07-03T13:48:23.754Z,5.47
2023-07-03T13:50:25.549Z,4.37
2023-07-03T13:52:27.623Z,6.00
2023-07-03T13:54:29.375Z,4.80
2023-07-03T13:56:31.377Z,6.83
2023-07-03T13:58:33.109Z,8.93
2023-07-03T14:00:34.788Z,7.47
2023-07-03T14:02:47.844Z,4.67
2023-07-03T14:04:51.000Z,5.37
2023-07-03T14:06:52.899Z,4.97
2023-07-03T14:08:54.998Z,8.37
2023-07-03T14:10:56.671Z,5.50
2023-07-03T14:12:58.389Z,7.00
2023-07-03T14:15:00.406Z,6.03
2023-07-03T14:17:02.167Z,4.20
2023-07-03T14:19:06.863Z,10.97
2023-07-03T14:21:14.877Z,8.63
2023-07-03T14:23:20.119Z,4.70
2023-07-03T14:25:23.857Z,7.10
2023-07-03T14:27:26.075Z,6.23
2023-07-03T14:29:27.838Z,7.30
2023-07-03T14:31:29.588Z,5.40
2023-07-03T14:33:32.058Z,4.03
2023-07-03T14:35:33.861Z,5.13
2023-07-03T14:37:37.158Z,3.07
2023-07-03T14:39:38.876Z,4.87
2023-07-03T14:41:40.798Z,2.53
2023-07-03T14:43:42.704Z,7.63
2023-07-03T14:45:44.412Z,6.90
2023-07-03T14:47:46.169Z,6.93
2023-07-03T14:49:47.914Z,3.97
2023-07-03T14:51:49.630Z,6.90
2023-07-03T14:53:51.524Z,4.63
2023-07-03T14:55:57.851Z,4.05
2023-07-03T14:57:59.566Z,7.18
2023-07-03T15:00:01.255Z,4.05
2023-07-03T15:02:03.014Z,3.38
2023-07-03T15:04:07.246Z,3.72
2023-07-03T15:06:09.250Z,4.55
2023-07-03T15:08:10.984Z,6.63
2023-07-03T15:10:12.964Z,3.70
2023-07-03T15:12:14.627Z,6.95
2023-07-03T15:14:16.339Z,5.28
2023-07-03T15:16:18.284Z,5.10
2023-07-03T15:18:20.045Z,4.57
2023-07-03T15:20:22.061Z,3.67
2023-07-03T15:22:23.745Z,4.40
2023-07-03T15:24:25.770Z,4.93
2023-07-03T15:26:27.534Z,5.00
2023-07-03T15:28:29.237Z,3.73
2023-07-03T15:30:31.366Z,4.40
2023-07-03T15:32:33.172Z,3.90
2023-07-03T15:34:35.184Z,5.43
2023-07-03T15:36:38.282Z,3.67
2023-07-03T15:38:40.088Z,5.93
2023-07-03T15:40:41.772Z,3.77
2023-07-03T15:42:45.004Z,4.80
2023-07-03T15:44:56.629Z,5.88
2023-07-03T15:46:58.428Z,4.32
2023-07-03T15:49:00.168Z,3.42
2023-07-03T15:51:02.800Z,7.23
2023-07-03T15:53:04.523Z,3.50
2023-07-03T15:55:06.886Z,4.77
2023-07-03T15:57:08.621Z,4.13
2023-07-03T15:59:11.117Z,6.57
2023-07-03T16:01:18.384Z,7.10
2023-07-03T16:03:20.107Z,4.90
2023-07-03T16:05:21.852Z,3.20
2023-07-03T16:07:23.708Z,2.50
2023-07-03T16:09:25.480Z,3.75
2023-07-03T16:11:28.147Z,4.00
2023-07-03T16:13:29.920Z,7.10
2023-07-03T16:15:32.721Z,3.93
2023-07-03T16:17:36.128Z,3.40
2023-07-03T16:19:37.959Z,2.50
2023-07-03T16:21:41.614Z,7.40
2023-07-03T16:23:43.554Z,2.97
2023-07-03T16:25:50.957Z,2.60
2023-07-03T16:27:53.238Z,2.57
2023-07-03T16:29:54.974Z,2.53
2023-07-03T16:31:56.789Z,2.87
2023-07-03T16:34:00.493Z,2.93
2023-07-03T16:36:16.937Z,3.07
2023-07-03T16:38:18.962Z,8.63
2023-07-03T16:40:20.754Z,3.13
2023-07-03T16:42:22.879Z,3.67
2023-07-03T16:44:24.734Z,5.10
2023-07-03T16:46:28.454Z,2.90
2023-07-03T16:48:33.261Z,3.80
2023-07-03T16:50:34.984Z,3.77
2023-07-03T16:52:36.710Z,3.70
2023-07-03T16:54:38.494Z,3.20
2023-07-03T16:56:40.148Z,3.83
2023-07-03T16:58:44.325Z,3.77
2023-07-03T17:00:46.173Z,3.60
2023-07-03T17:02:47.971Z,4.97
2023-07-03T17:04:49.721Z,3.20
2023-07-03T17:06:51.619Z,3.50
2023-07-03T17:08:54.290Z,5.33
2023-07-03T17:11:00.911Z,2.60
2023-07-03T17:13:05.755Z,2.87
2023-07-03T17:15:08.239Z,3.07
2023-07-03T17:17:10.155Z,6.40
2023-07-03T17:19:11.946Z,3.53
2023-07-03T17:21:13.721Z,3.37
2023-07-03T17:23:16.462Z,3.40
2023-07-03T17:25:18.194Z,2.93
2023-07-03T17:27:19.911Z,3.53
2023-07-03T17:29:21.639Z,3.20
2023-07-03T17:31:26.823Z,3.17
2023-07-03T17:33:28.709Z,3.07
2023-07-03T17:35:30.398Z,3.30
2023-07-03T17:37:32.092Z,3.60
2023-07-03T17:39:33.835Z,3.13
2023-07-03T17:41:36.449Z,4.70
2023-07-03T17:43:40.437Z,5.03
2023-07-03T17:45:43.098Z,6.60
2023-07-03T17:47:45.168Z,4.40
2023-07-03T17:49:47.130Z,5.43
2023-07-03T17:51:48.809Z,3.30
2023-07-03T17:53:50.636Z,6.13
2023-07-03T17:55:53.595Z,5.67
2023-07-03T17:57:56.370Z,9.77
2023-07-03T17:59:58.216Z,3.27
2023-07-03T18:01:59.956Z,3.70
2023-07-03T18:04:03.747Z,4.50
2023-07-03T18:06:08.618Z,3.83
2023-07-03T18:08:11.537Z,4.40
2023-07-03T18:10:13.327Z,6.10
2023-07-03T18:12:15.217Z,3.57
2023-07-03T18:14:16.950Z,5.97
2023-07-03T18:16:18.677Z,4.37
2023-07-03T18:18:21.000Z,3.00
2023-07-03T18:20:23.389Z,6.90
2023-07-03T18:22:25.137Z,4.43
2023-07-03T18:24:26.919Z,4.53
2023-07-03T18:26:28.746Z,5.10
2023-07-03T18:28:30.657Z,14.57
2023-07-03T18:30:32.366Z,3.57
2023-07-03T18:32:35.238Z,4.20
2023-07-03T18:34:37.039Z,3.50
2023-07-03T18:36:40.586Z,3.40
2023-07-03T18:38:42.347Z,2.70
2023-07-03T18:40:44.844Z,3.50
2023-07-03T18:42:46.551Z,4.67
2023-07-03T18:44:48.255Z,7.33
2023-07-03T18:46:50.015Z,5.83
2023-07-03T18:48:51.820Z,4.43
2023-07-03T18:50:53.526Z,3.90
2023-07-03T18:52:55.543Z,5.20
2023-07-03T18:54:57.323Z,3.43
2023-07-03T18:56:59.120Z,3.80
2023-07-03T18:59:00.920Z,3.83
2023-07-03T19:01:02.878Z,4.00
2023-07-03T19:03:04.708Z,3.90
2023-07-03T19:05:07.143Z,3.40
2023-07-03T19:07:08.872Z,3.97
2023-07-03T19:09:10.839Z,3.57
2023-07-03T19:11:12.722Z,4.40
2023-07-03T19:13:14.601Z,4.20
2023-07-03T19:15:16.431Z,6.73
2023-07-03T19:17:18.632Z,4.37
2023-07-03T19:19:20.441Z,4.73
2023-07-03T19:21:22.171Z,6.63
2023-07-03T19:23:24.073Z,4.27
2023-07-03T19:25:25.853Z,7.10
2023-07-03T19:27:27.555Z,7.50
2023-07-03T19:29:29.255Z,5.00
2023-07-03T19:31:31.136Z,3.40
2023-07-03T19:33:33.069Z,4.07
2023-07-03T19:35:37.580Z,4.67
2023-07-03T19:37:39.287Z,5.60
2023-07-03T19:39:41.068Z,6.57
2023-07-03T19:41:44.068Z,6.00
2023-07-03T19:43:45.825Z,7.43
2023-07-03T19:45:47.576Z,3.93
2023-07-03T19:47:49.385Z,4.03
2023-07-03T19:49:51.205Z,7.80
2023-07-03T19:51:52.915Z,4.20
2023-07-03T19:53:55.082Z,7.83
2023-07-03T19:55:57.356Z,4.27
2023-07-03T19:57:59.186Z,4.13
2023-07-03T20:00:01.033Z,3.90
2023-07-03T20:02:02.870Z,3.40
2023-07-03T20:04:07.416Z,9.53
2023-07-03T20:06:20.122Z,4.03
2023-07-03T20:08:21.979Z,3.87
2023-07-03T20:10:23.911Z,4.30
2023-07-03T20:12:25.940Z,3.63
2023-07-03T20:14:27.904Z,4.30
2023-07-03T20:16:31.132Z,6.23
2023-07-03T20:18:33.511Z,3.60
2023-07-03T20:20:39.095Z,3.60
2023-07-03T20:22:43.546Z,3.37
2023-07-03T20:24:47.026Z,3.37
2023-07-03T20:26:48.781Z,4.13
2023-07-03T20:28:50.548Z,5.97
2023-07-03T20:30:53.531Z,4.23
2023-07-03T20:32:55.724Z,6.60
2023-07-03T20:34:57.425Z,5.87
2023-07-03T20:36:59.117Z,3.73
2023-07-03T20:39:02.952Z,3.87
2023-07-03T20:41:08.354Z,2.77
2023-07-03T20:43:10.097Z,5.17
2023-07-03T20:45:12.174Z,4.67
2023-07-03T20:47:13.951Z,4.90
2023-07-03T20:49:15.876Z,4.80
2023-07-03T20:51:22.786Z,4.17
2023-07-03T20:53:40.347Z,3.83
2023-07-03T20:55:44.947Z,3.10
2023-07-03T20:57:46.604Z,5.57
2023-07-03T20:59:51.585Z,5.00
2023-07-03T21:01:53.418Z,4.00
2023-07-03T21:03:56.202Z,3.47
2023-07-03T21:05:57.987Z,3.83
2023-07-03T21:07:59.710Z,3.73
2023-07-03T21:10:01.580Z,4.03
2023-07-03T21:12:03.449Z,4.83
2023-07-03T21:14:06.887Z,5.97
2023-07-03T21:16:10.996Z,3.73
2023-07-03T21:18:12.743Z,4.57
2023-07-03T21:20:15.187Z,3.00
2023-07-03T21:22:17.798Z,4.70
2023-07-03T21:24:19.505Z,4.80
2023-07-03T21:26:22.358Z,3.10
2023-07-03T21:28:25.264Z,5.83
2023-07-03T21:30:26.977Z,4.13
2023-07-03T21:32:28.896Z,4.40
2023-07-03T21:34:30.695Z,3.40
2023-07-03T21:36:33.576Z,3.10
2023-07-03T21:38:36.185Z,3.97
2023-07-03T21:40:37.914Z,5.07
2023-07-03T21:42:39.714Z,5.10
2023-07-03T21:44:41.407Z,5.10
2023-07-03T21:46:43.555Z,7.60
2023-07-03T21:48:46.012Z,4.73
2023-07-03T21:50:53.414Z,3.60
2023-07-03T21:52:55.142Z,4.83
2023-07-03T21:54:56.940Z,5.70
2023-07-03T21:56:58.607Z,2.90
2023-07-03T21:59:03.045Z,4.33
2023-07-03T22:01:06.613Z,3.50
2023-07-03T22:03:08.614Z,3.97
2023-07-03T22:05:10.424Z,6.53
2023-07-03T22:07:13.727Z,7.43
2023-07-03T22:09:25.010Z,3.67
2023-07-03T22:11:35.172Z,3.50
2023-07-03T22:13:37.258Z,3.60
2023-07-03T22:15:39.011Z,4.00
2023-07-03T22:17:40.861Z,5.80
2023-07-03T22:19:44.419Z,3.03
2023-07-03T22:21:49.883Z,3.23
2023-07-03T22:23:52.078Z,3.90
2023-07-03T22:26:00.868Z,4.87
2023-07-03T22:28:02.836Z,7.33
2023-07-03T22:30:05.278Z,3.33
2023-07-03T22:32:07.700Z,3.87
2023-07-03T22:34:09.412Z,4.53
2023-07-03T22:36:12.279Z,4.03
2023-07-03T22:38:14.029Z,6.00
2023-07-03T22:40:16.240Z,2.93
2023-07-03T22:42:18.066Z,4.00
2023-07-03T22:44:19.995Z,4.00
2023-07-03T22:46:21.683Z,4.40
2023-07-03T22:48:23.552Z,4.30
2023-07-03T22:50:27.766Z,5.10
2023-07-03T22:52:33.656Z,4.57
2023-07-03T22:54:35.571Z,5.53
2023-07-03T22:56:37.410Z,4.97
2023-07-03T22:58:39.164Z,7.00
2023-07-03T23:00:41.291Z,6.70
2023-07-03T23:02:43.010Z,9.03
2023-07-03T23:04:45.669Z,5.70
2023-07-03T23:06:48.486Z,4.07
2023-07-03T23:08:51.519Z,4.47
2023-07-03T23:10:54.963Z,5.73
2023-07-03T23:12:56.925Z,3.43
2023-07-03T23:14:58.605Z,6.07
2023-07-03T23:17:00.863Z,3.77
2023-07-03T23:19:02.571Z,4.67
2023-07-03T23:21:12.254Z,6.00
2023-07-03T23:23:15.151Z,4.50
2023-07-03T23:25:16.961Z,3.73
2023-07-03T23:27:20.824Z,3.67
2023-07-03T23:29:22.873Z,4.23
2023-07-03T23:31:25.662Z,5.00
2023-07-03T23:33:30.292Z,8.23
2023-07-03T23:35:32.568Z,3.37
2023-07-03T23:37:34.298Z,5.90
2023-07-03T23:39:39.715Z,4.87
2023-07-03T23:41:41.460Z,4.43
2023-07-03T23:43:43.682Z,3.00
2023-07-03T23:45:45.442Z,4.47
2023-07-03T23:47:48.049Z,3.77
2023-07-03T23:49:51.789Z,4.90
2023-07-03T23:51:54.139Z,3.77
2023-07-03T23:53:56.639Z,4.23
2023-07-03T23:55:58.325Z,3.33
2023-07-03T23:58:00.195Z,4.80
